createdAt,value
2023-05-28T00:00:37.326Z,154.23
2023-05-28T00:03:05.360Z,154.90
2023-05-28T00:05:33.286Z,154.20
2023-05-28T00:08:02.597Z,155.13
2023-05-28T00:10:30.851Z,154.43
2023-05-28T00:12:58.745Z,154.47
2023-05-28T00:15:27.129Z,154.90
2023-05-28T00:17:55.096Z,154.03
2023-05-28T00:20:23.202Z,153.93
2023-05-28T00:22:52.289Z,154.17
2023-05-28T00:25:21.674Z,154.03
2023-05-28T00:27:49.679Z,154.23
2023-05-28T00:30:17.697Z,154.70
2023-05-28T00:32:46.275Z,153.63
2023-05-28T00:35:14.229Z,153.97
2023-05-28T00:37:42.253Z,154.10
2023-05-28T00:40:10.897Z,153.83
2023-05-28T00:42:40.155Z,154.07
2023-05-28T00:45:09.185Z,153.63
2023-05-28T00:47:37.890Z,154.67
2023-05-28T00:50:08.691Z,153.70
2023-05-28T00:52:37.579Z,153.97
2023-05-28T00:55:13.896Z,153.93
2023-05-28T00:57:43.597Z,154.10
2023-05-28T01:00:14.917Z,154.27
2023-05-28T01:02:42.941Z,153.80
2023-05-28T01:05:11.355Z,153.63
2023-05-28T01:07:39.442Z,153.60
2023-05-28T01:10:08.931Z,153.57
2023-05-28T01:12:38.272Z,153.83
2023-05-28T01:15:09.197Z,152.97
2023-05-28T01:17:39.146Z,152.57
2023-05-28T01:20:12.454Z,153.53
2023-05-28T01:22:41.962Z,153.83
2023-05-28T01:25:14.587Z,153.87
2023-05-28T01:27:44.936Z,153.53
2023-05-28T01:30:13.998Z,153.33
2023-05-28T01:32:42.976Z,153.47
2023-05-28T01:35:12.481Z,152.63
2023-05-28T01:37:45.584Z,153.00
2023-05-28T01:40:18.018Z,152.97
2023-05-28T01:42:47.653Z,152.70
2023-05-28T01:45:17.749Z,153.40
2023-05-28T01:47:48.125Z,153.10
2023-05-28T01:50:16.823Z,152.67
2023-05-28T01:52:45.242Z,152.47
2023-05-28T01:55:15.399Z,153.50
2023-05-28T01:57:45.565Z,152.77
2023-05-28T02:00:15.900Z,153.03
2023-05-28T02:02:44.019Z,153.37
2023-05-28T02:05:15.245Z,152.53
2023-05-28T02:07:43.658Z,152.63
2023-05-28T02:10:12.133Z,153.20
2023-05-28T02:12:41.349Z,153.07
2023-05-28T02:15:12.052Z,152.40
2023-05-28T02:17:39.993Z,153.37
2023-05-28T02:20:09.226Z,152.60
2023-05-28T02:22:37.106Z,152.77
2023-05-28T02:25:05.598Z,152.60
2023-05-28T02:27:33.714Z,152.47
2023-05-28T02:30:02.975Z,152.97
2023-05-28T02:32:31.660Z,152.33
2023-05-28T02:35:00.507Z,152.80
2023-05-28T02:37:28.409Z,152.07
2023-05-28T02:39:56.421Z,152.67
2023-05-28T02:42:24.520Z,151.70
2023-05-28T02:44:52.426Z,152.53
2023-05-28T02:47:24.374Z,152.33
2023-05-28T02:49:52.665Z,152.50
2023-05-28T02:52:21.396Z,152.13
2023-05-28T02:54:49.279Z,152.33
2023-05-28T02:57:17.417Z,151.53
2023-05-28T02:59:45.332Z,151.77
2023-05-28T03:02:13.942Z,152.37
2023-05-28T03:04:43.900Z,151.97
2023-05-28T03:07:11.867Z,151.67
2023-05-28T03:09:39.832Z,151.90
2023-05-28T03:12:08.778Z,151.53
2023-05-28T03:14:36.676Z,152.20
2023-05-28T03:17:04.911Z,152.20
2023-05-28T03:19:33.664Z,152.53
2023-05-28T03:22:03.198Z,151.73
2023-05-28T03:24:36.962Z,151.83
2023-05-28T03:27:09.233Z,151.63
2023-05-28T03:29:37.206Z,151.90
2023-05-28T03:32:22.132Z,151.40
2023-05-28T03:34:50.376Z,152.43
2023-05-28T03:37:25.370Z,151.77
2023-05-28T03:39:53.277Z,151.33
2023-05-28T03:42:21.228Z,151.90
2023-05-28T03:44:49.171Z,151.63
2023-05-28T03:47:17.993Z,151.57
2023-05-28T03:49:45.953Z,151.80
2023-05-28T03:52:13.810Z,150.77
2023-05-28T03:54:55.781Z,151.40
2023-05-28T03:57:23.686Z,151.83
2023-05-28T03:59:51.618Z,151.40
2023-05-28T04:02:19.818Z,150.97
2023-05-28T04:04:48.515Z,151.20
2023-05-28T04:07:16.527Z,151.30
2023-05-28T04:09:44.452Z,150.90
2023-05-28T04:12:14.219Z,151.67
2023-05-28T04:14:42.910Z,151.83
2023-05-28T04:17:13.033Z,151.60
2023-05-28T04:19:41.957Z,150.80
2023-05-28T04:22:10.064Z,152.03
2023-05-28T04:24:38.206Z,151.73
2023-05-28T04:27:07.562Z,151.17
2023-05-28T04:29:37.769Z,152.00
2023-05-28T04:32:10.066Z,151.67
2023-05-28T04:34:41.653Z,151.67
2023-05-28T04:37:09.729Z,151.30
2023-05-28T04:39:38.921Z,152.43
2023-05-28T04:42:08.837Z,152.73
2023-05-28T04:44:39.184Z,153.53
2023-05-28T04:47:10.081Z,153.30
2023-05-28T04:49:37.949Z,153.90
2023-05-28T04:52:06.698Z,154.37
2023-05-28T04:54:34.652Z,154.10
2023-05-28T04:57:03.413Z,154.70
2023-05-28T04:59:31.352Z,154.93
2023-05-28T05:02:00.858Z,153.40
2023-05-28T05:04:30.147Z,153.57
2023-05-28T05:06:58.042Z,154.10
2023-05-28T05:09:26.545Z,154.70
2023-05-28T05:11:54.407Z,154.07
2023-05-28T05:14:22.330Z,154.03
2023-05-28T05:16:50.468Z,154.30
2023-05-28T05:19:19.798Z,153.43
2023-05-28T05:21:47.824Z,153.13
2023-05-28T05:24:17.709Z,153.17
2023-05-28T05:26:45.705Z,153.17
2023-05-28T05:29:13.565Z,153.67
2023-05-28T05:31:42.030Z,153.97
2023-05-28T05:34:11.056Z,153.40
2023-05-28T05:37:09.185Z,153.47
2023-05-28T05:39:55.542Z,153.70
2023-05-28T05:42:23.405Z,154.17
2023-05-28T05:44:55.007Z,153.57
2023-05-28T05:47:23.158Z,153.77
2023-05-28T05:49:51.696Z,153.47
2023-05-28T05:52:20.999Z,153.87
2023-05-28T05:54:53.049Z,153.13
2023-05-28T05:57:20.968Z,153.00
2023-05-28T05:59:49.575Z,153.17
2023-05-28T06:02:17.737Z,153.90
2023-05-28T06:04:46.140Z,154.30
2023-05-28T06:07:27.143Z,153.97
2023-05-28T06:10:15.087Z,153.73
2023-05-28T06:12:44.034Z,154.10
2023-05-28T06:15:12.538Z,154.73
2023-05-28T06:17:41.004Z,154.77
2023-05-28T06:20:09.973Z,155.10
2023-05-28T06:22:40.141Z,154.53
2023-05-28T06:25:09.528Z,155.10
2023-05-28T06:27:37.669Z,154.53
2023-05-28T06:30:06.950Z,154.83
2023-05-28T06:32:35.341Z,155.20
2023-05-28T06:35:03.551Z,154.50
2023-05-28T06:37:32.486Z,155.30
2023-05-28T06:40:01.997Z,155.00
2023-05-28T06:42:30.492Z,155.20
2023-05-28T06:45:25.419Z,154.83
2023-05-28T06:47:53.317Z,155.00
2023-05-28T06:50:21.375Z,155.20
2023-05-28T06:52:53.108Z,155.03
2023-05-28T06:55:22.845Z,155.93
2023-05-28T06:58:19.774Z,156.23
2023-05-28T07:01:02.638Z,156.27
2023-05-28T07:03:49.331Z,155.83
2023-05-28T07:06:27.575Z,156.43
2023-05-28T07:08:55.458Z,156.23
2023-05-28T07:11:24.693Z,155.67
2023-05-28T07:13:53.584Z,155.57
2023-05-28T07:16:21.464Z,156.77
2023-05-28T07:18:49.524Z,156.40
2023-05-28T07:21:18.712Z,156.20
2023-05-28T07:23:48.232Z,156.33
2023-05-28T07:26:16.556Z,156.43
2023-05-28T07:28:45.806Z,154.73
2023-05-28T07:31:14.633Z,154.93
2023-05-28T07:33:44.109Z,155.83
2023-05-28T07:36:12.847Z,155.13
2023-05-28T07:38:40.820Z,155.70
2023-05-28T07:41:08.842Z,155.40
2023-05-28T07:43:50.540Z,155.60
2023-05-28T07:46:22.850Z,156.57
2023-05-28T07:49:00.962Z,155.70
2023-05-28T07:51:50.568Z,155.50
2023-05-28T07:54:24.598Z,156.63
2023-05-28T07:56:55.641Z,156.43
2023-05-28T07:59:33.454Z,156.83
2023-05-28T08:02:03.320Z,156.90
2023-05-28T08:04:31.867Z,158.07
2023-05-28T08:06:59.922Z,157.43
2023-05-28T08:09:27.844Z,157.87
2023-05-28T08:11:58.308Z,158.20
2023-05-28T08:14:28.558Z,158.57
2023-05-28T08:17:03.096Z,159.80
2023-05-28T08:19:55.864Z,160.40
2023-05-28T08:22:37.390Z,161.10
2023-05-28T08:25:05.776Z,159.93
2023-05-28T08:27:33.854Z,160.30
2023-05-28T08:30:01.785Z,160.33
2023-05-28T08:32:31.645Z,160.40
2023-05-28T08:35:00.046Z,159.57
2023-05-28T08:37:27.948Z,160.57
2023-05-28T08:40:18.619Z,160.03
2023-05-28T08:42:46.623Z,160.03
2023-05-28T08:45:14.706Z,160.43
2023-05-28T08:47:49.679Z,160.57
2023-05-28T08:50:23.553Z,160.63
2023-05-28T08:53:02.872Z,160.53
2023-05-28T08:55:34.918Z,160.27
2023-05-28T08:58:22.428Z,160.53
2023-05-28T09:00:52.490Z,160.17
2023-05-28T09:03:27.619Z,160.37
2023-05-28T09:06:10.317Z,160.73
2023-05-28T09:08:38.628Z,160.37
2023-05-28T09:11:12.144Z,160.27
2023-05-28T09:13:44.802Z,159.23
2023-05-28T09:16:15.713Z,160.77
2023-05-28T09:18:46.088Z,160.17
2023-05-28T09:21:16.201Z,159.67
2023-05-28T09:23:47.102Z,160.53
2023-05-28T09:26:37.972Z,160.60
2023-05-28T09:29:22.010Z,160.17
2023-05-28T09:31:56.953Z,160.30
2023-05-28T09:34:30.773Z,159.87
2023-05-28T09:37:02.814Z,160.47
2023-05-28T09:39:30.835Z,159.80
2023-05-28T09:42:07.223Z,160.70
2023-05-28T09:44:35.975Z,159.67
2023-05-28T09:47:15.378Z,159.57
2023-05-28T09:49:46.959Z,159.40
2023-05-28T09:52:20.627Z,160.60
2023-05-28T09:54:52.572Z,160.70
2023-05-28T09:57:25.365Z,160.03
2023-05-28T09:59:56.774Z,159.80
2023-05-28T10:02:34.338Z,159.97
2023-05-28T10:05:09.209Z,160.13
2023-05-28T10:07:39.408Z,158.40
2023-05-28T10:10:10.639Z,158.50
2023-05-28T10:12:41.060Z,159.37
2023-05-28T10:15:11.007Z,159.33
2023-05-28T10:17:39.867Z,158.03
2023-05-28T10:20:11.730Z,158.13
2023-05-28T10:22:41.322Z,158.67
2023-05-28T10:25:10.555Z,158.87
2023-05-28T10:27:44.080Z,159.23
2023-05-28T10:30:13.662Z,158.80
2023-05-28T10:32:43.082Z,159.20
2023-05-28T10:35:13.633Z,160.13
2023-05-28T10:37:41.776Z,159.07
2023-05-28T10:40:11.531Z,159.27
2023-05-28T10:42:43.231Z,159.83
2023-05-28T10:45:12.390Z,160.07
2023-05-28T10:47:41.845Z,159.20
2023-05-28T10:50:18.437Z,159.77
2023-05-28T10:53:06.576Z,160.47
2023-05-28T10:55:51.258Z,160.30
2023-05-28T10:58:27.021Z,160.80
2023-05-28T11:00:59.410Z,159.90
2023-05-28T11:03:46.006Z,159.93
2023-05-28T11:06:16.175Z,159.60
2023-05-28T11:08:46.527Z,159.47
2023-05-28T11:11:17.652Z,159.47
2023-05-28T11:13:47.398Z,159.90
2023-05-28T11:16:17.086Z,160.47
2023-05-28T11:19:03.343Z,159.47
2023-05-28T11:21:33.766Z,160.60
2023-05-28T11:24:06.068Z,160.90
2023-05-28T11:26:34.178Z,159.20
2023-05-28T11:29:05.947Z,159.37
2023-05-28T11:31:40.312Z,159.90
2023-05-28T11:34:08.445Z,159.50
2023-05-28T11:36:41.852Z,160.47
2023-05-28T11:39:09.736Z,159.73
2023-05-28T11:41:37.831Z,159.10
2023-05-28T11:44:20.056Z,159.90
2023-05-28T11:46:48.018Z,159.80
2023-05-28T11:49:16.148Z,159.67
2023-05-28T11:51:45.447Z,160.03
2023-05-28T11:54:13.334Z,160.97
2023-05-28T11:56:41.201Z,160.63
2023-05-28T11:59:09.090Z,160.40
2023-05-28T12:01:37.064Z,160.07
2023-05-28T12:04:07.003Z,159.70
2023-05-28T12:06:40.992Z,161.33
2023-05-28T12:09:13.190Z,160.37
2023-05-28T12:11:41.062Z,160.43
2023-05-28T12:14:12.745Z,160.73
2023-05-28T12:16:48.917Z,160.83
2023-05-28T12:19:17.331Z,160.90
2023-05-28T12:21:46.211Z,160.87
2023-05-28T12:24:16.881Z,160.77
2023-05-28T12:26:44.795Z,160.97
2023-05-28T12:29:12.772Z,161.07
2023-05-28T12:31:40.697Z,161.67
2023-05-28T12:34:08.798Z,161.83
2023-05-28T12:36:36.649Z,161.70
2023-05-28T12:39:05.733Z,161.90
2023-05-28T12:41:34.977Z,161.60
2023-05-28T12:44:02.830Z,161.30
2023-05-28T12:46:31.471Z,160.87
2023-05-28T12:48:59.343Z,161.53
2023-05-28T12:51:27.436Z,161.60
2023-05-28T12:53:55.344Z,161.80
2023-05-28T12:56:23.472Z,161.13
2023-05-28T12:58:53.124Z,161.53
2023-05-28T13:01:21.647Z,160.53
2023-05-28T13:03:50.289Z,161.50
2023-05-28T13:06:18.357Z,160.97
2023-05-28T13:08:46.856Z,161.40
2023-05-28T13:11:14.946Z,161.00
2023-05-28T13:13:42.858Z,160.23
2023-05-28T13:16:14.717Z,161.50
2023-05-28T13:18:43.663Z,161.67
2023-05-28T13:21:11.590Z,161.13
2023-05-28T13:23:39.476Z,161.77
2023-05-28T13:26:07.335Z,161.13
2023-05-28T13:28:35.215Z,161.40
2023-05-28T13:31:03.080Z,161.63
2023-05-28T13:33:32.479Z,160.87
2023-05-28T13:36:00.434Z,161.80
2023-05-28T13:38:29.256Z,160.03
2023-05-28T13:40:57.235Z,161.07
2023-05-28T13:43:26.564Z,160.90
2023-05-28T13:45:54.471Z,160.53
2023-05-28T13:48:23.968Z,161.37
2023-05-28T13:50:54.131Z,161.77
2023-05-28T13:53:22.343Z,160.77
2023-05-28T13:55:50.492Z,160.77
2023-05-28T13:58:18.359Z,161.90
2023-05-28T14:00:46.241Z,162.90
2023-05-28T14:03:15.006Z,161.40
2023-05-28T14:05:44.322Z,161.70
2023-05-28T14:08:13.757Z,161.67
2023-05-28T14:10:41.820Z,161.37
2023-05-28T14:13:10.427Z,162.27
2023-05-28T14:15:42.526Z,160.67
2023-05-28T14:18:34.452Z,162.40
2023-05-28T14:21:26.790Z,161.67
2023-05-28T14:23:56.003Z,161.93
2023-05-28T14:26:23.862Z,161.30
2023-05-28T14:28:51.719Z,161.03
2023-05-28T14:31:19.644Z,160.40
2023-05-28T14:33:47.486Z,160.90
2023-05-28T14:36:16.412Z,160.10
2023-05-28T14:38:44.693Z,159.13
2023-05-28T14:41:14.057Z,161.13
2023-05-28T14:43:42.100Z,160.20
2023-05-28T14:46:10.033Z,159.60
2023-05-28T14:48:38.072Z,160.43
2023-05-28T14:51:07.891Z,160.27
2023-05-28T14:53:35.889Z,160.03
2023-05-28T14:56:03.748Z,160.17
2023-05-28T14:58:32.949Z,159.17
2023-05-28T15:01:03.872Z,160.27
2023-05-28T15:03:32.571Z,160.07
2023-05-28T15:06:01.185Z,159.63
2023-05-28T15:08:29.215Z,160.27
2023-05-28T15:10:58.063Z,160.50
2023-05-28T15:13:25.970Z,159.60
2023-05-28T15:15:56.304Z,160.53
2023-05-28T15:18:24.586Z,160.10
2023-05-28T15:20:52.655Z,160.43
2023-05-28T15:23:21.261Z,159.77
2023-05-28T15:25:49.351Z,160.60
2023-05-28T15:28:18.051Z,159.47
2023-05-28T15:30:46.196Z,160.13
2023-05-28T15:33:16.355Z,160.50
2023-05-28T15:35:44.742Z,160.63
2023-05-28T15:38:13.012Z,160.57
2023-05-28T15:40:41.489Z,161.27
2023-05-28T15:43:09.560Z,161.03
2023-05-28T15:45:37.686Z,160.43
2023-05-28T15:48:05.630Z,161.00
2023-05-28T15:50:36.053Z,160.93
2023-05-28T15:53:04.098Z,161.30
2023-05-28T15:55:32.361Z,160.67
2023-05-28T15:58:00.466Z,160.30
2023-05-28T16:00:29.054Z,160.30
2023-05-28T16:02:59.575Z,161.27
2023-05-28T16:05:28.917Z,159.53
2023-05-28T16:07:58.805Z,159.47
2023-05-28T16:10:26.883Z,159.40
2023-05-28T16:13:00.361Z,160.17
2023-05-28T16:15:30.966Z,159.50
2023-05-28T16:18:00.824Z,160.80
2023-05-28T16:20:31.671Z,160.73
2023-05-28T16:23:02.112Z,160.43
2023-05-28T16:25:30.709Z,161.03
2023-05-28T16:27:58.865Z,160.93
2023-05-28T16:30:27.162Z,161.20
2023-05-28T16:32:58.709Z,161.27
2023-05-28T16:35:27.540Z,161.57
2023-05-28T16:37:55.980Z,162.33
2023-05-28T16:40:27.136Z,162.63
2023-05-28T16:42:57.820Z,160.97
2023-05-28T16:45:26.026Z,161.43
2023-05-28T16:47:54.488Z,160.83
2023-05-28T16:50:22.702Z,160.80
2023-05-28T16:52:50.607Z,161.43
2023-05-28T16:55:20.449Z,161.23
2023-05-28T16:57:50.002Z,160.73
2023-05-28T17:00:21.900Z,160.97
2023-05-28T17:02:51.391Z,160.70
2023-05-28T17:05:19.537Z,161.30
2023-05-28T17:07:47.481Z,161.37
2023-05-28T17:10:16.438Z,161.23
2023-05-28T17:12:44.335Z,160.93
2023-05-28T17:15:13.740Z,161.47
2023-05-28T17:17:41.683Z,161.17
2023-05-28T17:20:10.567Z,161.03
2023-05-28T17:22:40.710Z,161.60
2023-05-28T17:25:09.496Z,161.10
2023-05-28T17:27:37.917Z,160.83
2023-05-28T17:30:07.058Z,161.43
2023-05-28T17:32:36.388Z,161.87
2023-05-28T17:35:04.452Z,161.23
2023-05-28T17:37:32.393Z,161.20
2023-05-28T17:40:00.302Z,161.60
2023-05-28T17:42:29.098Z,161.27
2023-05-28T17:44:57.091Z,161.47
2023-05-28T17:47:25.053Z,161.57
2023-05-28T17:49:54.300Z,161.40
2023-05-28T17:52:22.174Z,162.07
2023-05-28T17:54:50.104Z,160.97
2023-05-28T17:57:18.361Z,161.63
2023-05-28T17:59:46.276Z,162.30
2023-05-28T18:02:14.499Z,160.67
2023-05-28T18:04:42.546Z,162.23
2023-05-28T18:07:11.789Z,161.70
2023-05-28T18:09:39.821Z,161.47
2023-05-28T18:12:08.068Z,161.57
2023-05-28T18:14:37.642Z,161.37
2023-05-28T18:17:07.668Z,160.93
2023-05-28T18:19:35.958Z,162.07
2023-05-28T18:22:03.899Z,159.83
2023-05-28T18:24:33.175Z,160.07
2023-05-28T18:27:01.087Z,160.77
2023-05-28T18:29:29.099Z,160.93
2023-05-28T18:31:57.133Z,160.60
2023-05-28T18:34:25.043Z,159.97
2023-05-28T18:36:52.933Z,160.27
2023-05-28T18:39:21.228Z,160.63
2023-05-28T18:41:51.458Z,160.33
2023-05-28T18:44:20.781Z,160.97
2023-05-28T18:46:48.822Z,160.63
2023-05-28T18:49:16.819Z,159.93
2023-05-28T18:51:46.448Z,160.73
2023-05-28T18:54:14.773Z,159.83
2023-05-28T18:56:42.666Z,160.33
2023-05-28T18:59:11.936Z,160.20
2023-05-28T19:01:41.339Z,160.43
2023-05-28T19:04:09.293Z,160.33
2023-05-28T19:06:38.797Z,160.13
2023-05-28T19:09:06.797Z,160.13
2023-05-28T19:11:34.758Z,160.53
2023-05-28T19:14:04.038Z,160.47
2023-05-28T19:16:33.269Z,160.50
2023-05-28T19:19:01.217Z,160.73
2023-05-28T19:21:29.177Z,161.60
2023-05-28T19:23:57.050Z,159.53
2023-05-28T19:26:25.122Z,159.80
2023-05-28T19:28:53.150Z,159.57
2023-05-28T19:31:21.120Z,159.30
2023-05-28T19:33:52.537Z,158.57
2023-05-28T19:36:20.908Z,159.30
2023-05-28T19:38:49.157Z,159.00
2023-05-28T19:41:18.148Z,159.13
2023-05-28T19:43:46.452Z,159.23
2023-05-28T19:46:16.518Z,158.73
2023-05-28T19:48:44.996Z,159.37
2023-05-28T19:51:14.913Z,159.03
2023-05-28T19:53:42.847Z,159.03
2023-05-28T19:56:11.390Z,158.30
2023-05-28T19:58:39.283Z,158.57
2023-05-28T20:01:08.077Z,158.67
2023-05-28T20:03:37.071Z,158.93
2023-05-28T20:06:07.673Z,159.17
2023-05-28T20:08:37.212Z,159.17
2023-05-28T20:11:06.586Z,159.20
2023-05-28T20:13:34.537Z,159.13
2023-05-28T20:16:02.543Z,159.17
2023-05-28T20:18:30.704Z,159.33
2023-05-28T20:21:00.312Z,160.83
2023-05-28T20:23:28.609Z,160.03
2023-05-28T20:25:57.857Z,159.77
2023-05-28T20:28:26.100Z,159.17
2023-05-28T20:30:54.518Z,158.80
2023-05-28T20:33:23.090Z,159.80
2023-05-28T20:35:51.015Z,159.83
2023-05-28T20:38:18.906Z,159.73
2023-05-28T20:40:46.821Z,159.73
2023-05-28T20:43:16.400Z,160.30
2023-05-28T20:45:45.502Z,160.47
2023-05-28T20:48:32.358Z,161.40
2023-05-28T20:51:00.304Z,164.10
2023-05-28T20:53:29.795Z,160.83
2023-05-28T20:55:57.736Z,162.10
2023-05-28T20:58:34.047Z,162.97
2023-05-28T21:01:03.368Z,162.10
2023-05-28T21:03:31.437Z,161.37
2023-05-28T21:05:59.447Z,161.47
2023-05-28T21:08:27.320Z,160.50
2023-05-28T21:10:55.256Z,159.90
2023-05-28T21:13:23.364Z,160.80
2023-05-28T21:15:52.695Z,161.33
2023-05-28T21:18:20.586Z,161.00
2023-05-28T21:20:48.754Z,161.47
2023-05-28T21:23:16.858Z,160.33
2023-05-28T21:25:45.324Z,159.77
2023-05-28T21:28:13.204Z,159.50
2023-05-28T21:30:41.366Z,160.07
2023-05-28T21:33:11.058Z,160.20
2023-05-28T21:35:39.068Z,159.77
2023-05-28T21:38:06.982Z,159.53
2023-05-28T21:40:34.913Z,159.77
2023-05-28T21:43:02.778Z,158.87
2023-05-28T21:45:30.694Z,158.60
2023-05-28T21:47:58.987Z,159.33
2023-05-28T21:50:28.269Z,158.10
2023-05-28T21:52:57.858Z,159.53
2023-05-28T21:55:26.369Z,158.67
2023-05-28T21:57:54.395Z,159.13
2023-05-28T22:00:23.121Z,158.30
2023-05-28T22:02:51.233Z,158.43
2023-05-28T22:05:22.779Z,158.20
2023-05-28T22:07:52.703Z,158.03
2023-05-28T22:10:21.236Z,158.47
2023-05-28T22:12:50.734Z,158.27
2023-05-28T22:15:18.910Z,157.97
2023-05-28T22:17:47.275Z,157.87
2023-05-28T22:20:15.677Z,158.27
2023-05-28T22:22:43.621Z,157.70
2023-05-28T22:25:12.957Z,157.97
2023-05-28T22:27:41.038Z,157.10
2023-05-28T22:30:09.525Z,156.53
2023-05-28T22:32:37.712Z,157.37
2023-05-28T22:35:07.647Z,157.53
2023-05-28T22:37:35.585Z,157.77
2023-05-28T22:40:05.898Z,157.37
2023-05-28T22:42:36.497Z,157.37
2023-05-28T22:45:05.548Z,157.47
2023-05-28T22:47:33.526Z,156.37
2023-05-28T22:50:02.006Z,155.97
2023-05-28T22:52:29.912Z,156.80
2023-05-28T22:54:57.914Z,156.40
2023-05-28T22:57:25.785Z,156.50
2023-05-28T22:59:56.083Z,156.50
2023-05-28T23:02:24.814Z,156.83
2023-05-28T23:04:52.721Z,156.73
2023-05-28T23:07:20.590Z,156.10
2023-05-28T23:09:48.519Z,155.87
2023-05-28T23:12:16.562Z,155.67
2023-05-28T23:14:44.504Z,156.10
2023-05-28T23:17:18.293Z,155.80
2023-05-28T23:19:46.965Z,156.40
2023-05-28T23:22:15.836Z,155.73
2023-05-28T23:24:43.775Z,156.47
2023-05-28T23:27:11.742Z,156.53
2023-05-28T23:29:39.765Z,156.23
2023-05-28T23:32:08.207Z,156.43
2023-05-28T23:34:37.423Z,156.23
2023-05-28T23:37:06.221Z,156.37
2023-05-28T23:39:34.091Z,156.43
2023-05-28T23:42:02.359Z,156.27
2023-05-28T23:44:31.070Z,155.47
2023-05-28T23:46:59.441Z,155.70
2023-05-28T23:49:27.363Z,156.43
2023-05-28T23:51:56.711Z,156.00
2023-05-28T23:54:24.896Z,155.60
2023-05-28T23:56:52.818Z,155.77
2023-05-28T23:59:20.680Z,156.23
